Time;durP1;ratioP1;P1;durP2;ratioP2;P2;SDS_P1;SDS_P2;PMS_P1;PMS_P2;Temp;Humidity;BMP_temperature;BMP_pressure;BME280_temperature;BME280_humidity;BME280_pressure;Samples;Min_cycle;Max_cycle;Signal;HPM_P1;HPM_P2
2022/04/01 00:00:11;;;;;;;5.93;1.50;;;4.00;99.90;;;;;;5053220;28;20017;-66
2022/04/01 00:02:37;;;;;;;3.88;1.60;;;4.00;99.90;;;;;;5053150;28;20475;-67
2022/04/01 00:05:04;;;;;;;13.25;2.10;;;4.00;99.90;;;;;;5053132;28;20025;-67
2022/04/01 00:07:30;;;;;;;5.70;3.40;;;4.10;99.90;;;;;;5053075;28;20032;-66
2022/04/01 00:09:56;;;;;;;7.07;1.90;;;4.10;99.90;;;;;;5053079;28;20083;-67
2022/04/01 00:12:22;;;;;;;4.70;1.50;;;4.10;99.90;;;;;;5052965;28;20021;-66
2022/04/01 00:14:47;;;;;;;2.83;1.58;;;4.00;99.90;;;;;;5052986;28;20024;-66
2022/04/01 00:17:13;;;;;;;10.68;2.13;;;4.10;99.90;;;;;;5053032;28;20025;-67
2022/04/01 00:19:39;;;;;;;10.10;2.03;;;4.00;99.90;;;;;;5052976;28;20025;-66
2022/04/01 00:22:07;;;;;;;9.35;2.13;;;4.10;99.90;;;;;;5053274;28;20082;-65
2022/04/01 00:24:33;;;;;;;5.13;2.05;;;4.10;99.90;;;;;;5053249;28;20025;-67
2022/04/01 00:26:59;;;;;;;5.55;1.90;;;4.10;99.90;;;;;;5052909;28;20037;-67
2022/04/01 00:29:26;;;;;;;4.55;1.70;;;4.00;99.90;;;;;;5053427;28;20379;-66
2022/04/01 00:31:58;;;;;;;4.50;1.80;;;3.90;99.90;;;;;;5052814;28;20475;-66
2022/04/01 00:34:33;;;;;;;6.05;1.63;;;3.90;99.90;;;;;;5055185;28;20021;-66
2022/04/01 00:37:00;;;;;;;8.68;3.22;;;3.80;99.90;;;;;;5056835;28;20082;-66
2022/04/01 00:39:30;;;;;;;18.58;5.18;;;3.70;99.90;;;;;;5057119;28;20378;-66
2022/04/01 00:41:57;;;;;;;6.50;1.50;;;3.70;99.90;;;;;;5056790;28;20071;-66
2022/04/01 00:44:23;;;;;;;4.90;1.75;;;3.60;99.90;;;;;;5056769;28;20150;-66
2022/04/01 00:46:51;;;;;;;4.55;1.70;;;3.70;99.90;;;;;;5056710;28;20063;-66
2022/04/01 00:49:19;;;;;;;4.93;1.83;;;3.70;99.90;;;;;;5056938;28;20029;-66
2022/04/01 00:51:46;;;;;;;10.40;1.90;;;3.70;99.90;;;;;;5057071;28;20031;-66
2022/04/01 00:54:12;;;;;;;4.53;1.73;;;3.70;99.90;;;;;;5056839;28;20467;-66
2022/04/01 00:56:39;;;;;;;3.92;1.50;;;3.60;99.90;;;;;;5056842;28;20079;-66
2022/04/01 00:59:07;;;;;;;6.07;1.52;;;3.60;99.90;;;;;;5056503;28;20018;-66
2022/04/01 01:01:34;;;;;;;4.80;1.90;;;3.60;99.90;;;;;;5056454;28;20478;-66
2022/04/01 01:04:05;;;;;;;4.93;1.90;;;3.50;99.90;;;;;;5056382;28;20028;-66
2022/04/01 01:06:38;;;;;;;6.30;1.80;;;3.40;99.90;;;;;;5056593;28;20029;-66
2022/04/01 01:09:05;;;;;;;8.65;2.00;;;3.40;99.90;;;;;;5056625;28;20025;-66
2022/04/01 01:11:32;;;;;;;3.47;1.60;;;3.40;99.90;;;;;;5038379;28;20154;-66
2022/04/01 01:13:58;;;;;;;3.88;1.73;;;3.40;99.90;;;;;;5056042;28;20561;-67
2022/04/01 01:16:23;;;;;;;4.97;1.70;;;3.30;99.90;;;;;;5056169;28;20479;-66
2022/04/01 01:19:04;;;;;;;6.25;1.95;;;3.30;99.90;;;;;;5056421;28;20032;-67
2022/04/01 01:21:31;;;;;;;4.13;1.50;;;3.30;99.90;;;;;;5056677;28;20356;-66
2022/04/01 01:24:11;;;;;;;7.65;1.58;;;3.30;99.90;;;;;;5055567;28;20040;-66
2022/04/01 01:26:37;;;;;;;3.78;1.60;;;3.30;99.90;;;;;;5051795;28;20085;-66
2022/04/01 01:29:04;;;;;;;3.95;1.42;;;3.30;99.90;;;;;;5055941;28;20063;-66
2022/04/01 01:31:30;;;;;;;5.18;1.50;;;3.40;99.90;;;;;;5055887;28;20036;-66
2022/04/01 01:33:58;;;;;;;5.65;1.35;;;3.50;99.90;;;;;;5055771;28;20118;-66
2022/04/01 01:36:26;;;;;;;4.47;1.70;;;3.40;99.90;;;;;;5055802;28;20028;-66
2022/04/01 01:38:52;;;;;;;3.40;1.52;;;3.40;99.90;;;;;;5055751;28;20138;-66
2022/04/01 01:41:18;;;;;;;5.75;1.45;;;3.40;99.90;;;;;;5055717;28;20087;-66
2022/04/01 01:43:44;;;;;;;7.55;2.03;;;3.40;99.90;;;;;;5055681;28;20367;-66
2022/04/01 01:46:10;;;;;;;4.45;1.40;;;3.40;99.90;;;;;;5055123;28;20074;-65
2022/04/01 01:48:36;;;;;;;8.02;1.38;;;3.50;99.90;;;;;;5055553;28;20048;-66
2022/04/01 01:56:31;;;;;;;2.95;1.30;;;3.70;99.90;;;;;;5055761;28;20032;-66
2022/04/01 01:58:57;;;;;;;3.63;1.30;;;3.80;99.90;;;;;;5055419;28;20017;-66
2022/04/01 02:01:23;;;;;;;2.83;1.25;;;3.80;99.90;;;;;;5055660;28;20379;-67
2022/04/01 02:03:49;;;;;;;1.83;1.13;;;3.80;99.90;;;;;;5055554;28;20096;-66
2022/04/01 02:06:15;;;;;;;5.10;1.00;;;3.90;99.90;;;;;;5055236;28;20454;-66
2022/04/01 02:08:41;;;;;;;7.65;1.20;;;3.70;99.90;;;;;;5055223;28;20108;-66
2022/04/01 02:11:08;;;;;;;4.28;1.40;;;3.60;99.90;;;;;;5055184;28;20079;-66
2022/04/01 02:13:34;;;;;;;5.63;1.85;;;3.40;99.90;;;;;;5055329;28;20175;-66
2022/04/01 02:16:00;;;;;;;8.40;1.73;;;3.10;99.90;;;;;;5055003;28;20491;-66
2022/04/01 02:18:26;;;;;;;3.42;1.83;;;2.90;99.90;;;;;;5054994;28;20032;-66
2022/04/01 02:20:52;;;;;;;3.03;1.20;;;2.90;99.90;;;;;;5055016;28;20395;-66
2022/04/01 02:23:17;;;;;;;4.53;1.52;;;2.80;99.90;;;;;;5054721;28;20041;-66
2022/04/01 02:25:44;;;;;;;4.43;1.33;;;2.90;99.90;;;;;;5055170;28;20061;-66
2022/04/01 02:28:11;;;;;;;6.38;1.33;;;2.80;99.90;;;;;;5054802;28;20021;-67
2022/04/01 02:30:37;;;;;;;3.03;1.10;;;2.90;99.90;;;;;;5054751;28;20082;-66
2022/04/01 02:33:03;;;;;;;5.43;1.20;;;2.90;99.90;;;;;;5054944;28;20096;-66
2022/04/01 02:35:29;;;;;;;3.20;1.30;;;3.00;99.90;;;;;;5054706;28;20478;-67
2022/04/01 02:37:55;;;;;;;4.38;1.33;;;3.00;99.90;;;;;;5054651;28;20024;-66
2022/04/01 02:40:22;;;;;;;3.40;1.15;;;3.00;99.90;;;;;;5054589;28;20053;-66
2022/04/01 02:42:51;;;;;;;5.07;1.13;;;3.10;99.90;;;;;;5054544;28;20025;-66
2022/04/01 02:45:17;;;;;;;3.07;1.30;;;3.30;99.90;;;;;;5054518;28;20032;-66
2022/04/01 02:47:42;;;;;;;4.13;1.10;;;3.30;99.90;;;;;;5054462;28;20032;-66
2022/04/01 02:50:09;;;;;;;6.38;1.50;;;3.30;99.90;;;;;;5054403;28;20032;-66
2022/04/01 02:52:34;;;;;;;5.82;1.35;;;3.40;99.90;;;;;;5054578;28;20150;-66
2022/04/01 02:55:00;;;;;;;5.93;1.77;;;3.50;99.90;;;;;;5054328;28;20035;-66
2022/04/01 02:57:26;;;;;;;3.00;1.40;;;3.80;99.90;;;;;;5053412;28;20060;-66
2022/04/01 02:59:52;;;;;;;2.25;1.30;;;3.60;99.90;;;;;;5036306;28;20108;-66
2022/04/01 03:02:18;;;;;;;2.47;1.55;;;3.40;99.90;;;;;;5054440;28;20025;-66
2022/04/01 03:04:45;;;;;;;4.38;1.90;;;3.30;99.90;;;;;;5054146;28;20554;-66
2022/04/01 03:07:10;;;;;;;6.25;1.90;;;3.30;99.90;;;;;;5054047;28;20398;-66
2022/04/01 03:09:36;;;;;;;4.65;2.03;;;3.40;99.90;;;;;;5054309;28;20033;-66
2022/04/01 03:12:02;;;;;;;5.93;2.13;;;3.70;99.90;;;;;;5053913;28;20021;-70
2022/04/01 03:14:28;;;;;;;9.98;2.70;;;3.60;99.90;;;;;;5054301;28;20447;-70
2022/04/01 03:16:53;;;;;;;8.32;3.83;;;3.30;99.90;;;;;;5054192;28;20021;-69
2022/04/01 03:19:19;;;;;;;5.03;2.75;;;3.10;99.90;;;;;;5054159;28;20032;-70
2022/04/01 03:21:45;;;;;;;4.95;2.58;;;2.90;99.90;;;;;;5053804;28;20056;-69
2022/04/01 03:24:11;;;;;;;6.75;2.60;;;2.80;99.90;;;;;;5053591;28;20107;-71
2022/04/01 03:26:40;;;;;;;7.93;2.85;;;2.70;99.90;;;;;;5053765;28;20013;-69
2022/04/01 03:29:07;;;;;;;4.80;2.75;;;2.60;99.90;;;;;;5053425;28;20056;-70
2022/04/01 03:31:33;;;;;;;8.88;3.08;;;2.60;99.90;;;;;;5053655;28;20155;-72
2022/04/01 03:33:59;;;;;;;6.35;2.50;;;2.60;99.90;;;;;;5053823;28;20178;-70
2022/04/01 03:36:25;;;;;;;6.03;2.80;;;2.60;99.90;;;;;;5053608;28;20494;-71
2022/04/01 03:38:51;;;;;;;6.70;2.60;;;2.60;99.90;;;;;;5053521;28;20378;-70
2022/04/01 03:41:19;;;;;;;4.13;2.58;;;2.70;99.90;;;;;;5053496;28;20486;-70
2022/04/01 03:43:45;;;;;;;5.00;2.50;;;2.60;99.90;;;;;;5053467;28;20059;-71
2022/04/01 03:46:14;;;;;;;7.53;3.60;;;2.50;99.90;;;;;;5053369;28;20056;-70
2022/04/01 03:48:44;;;;;;;8.52;3.20;;;2.60;99.90;;;;;;5053668;28;20029;-69
2022/04/01 03:51:15;;;;;;;8.48;3.97;;;2.50;99.90;;;;;;5053708;28;20024;-71
2022/04/01 03:53:52;;;;;;;5.78;2.80;;;2.40;99.90;;;;;;5053779;28;20025;-69
2022/04/01 03:56:28;;;;;;;6.20;3.05;;;2.40;99.90;;;;;;5053323;28;20025;-71
2022/04/01 03:59:07;;;;;;;6.28;2.90;;;2.40;99.90;;;;;;5053555;28;20021;-71
2022/04/01 04:01:35;;;;;;;7.13;3.10;;;2.30;99.90;;;;;;5053531;28;20017;-70
2022/04/01 04:04:01;;;;;;;6.35;2.95;;;2.30;99.90;;;;;;5053192;28;20025;-71
2022/04/01 04:06:27;;;;;;;5.53;2.40;;;2.30;99.90;;;;;;5053165;28;20021;-70
2022/04/01 04:09:03;;;;;;;5.55;2.63;;;2.30;99.90;;;;;;5053213;28;20090;-70
2022/04/01 04:11:33;;;;;;;6.30;2.63;;;2.30;99.90;;;;;;5053406;28;20108;-70
2022/04/01 04:14:01;;;;;;;4.07;2.53;;;2.30;99.90;;;;;;5053214;28;20390;-69
2022/04/01 04:16:29;;;;;;;6.10;2.70;;;2.30;99.90;;;;;;5053278;28;20075;-69
2022/04/01 04:19:16;;;;;;;5.65;2.47;;;2.30;99.90;;;;;;5052999;28;20055;-70
2022/04/01 04:22:01;;;;;;;11.15;2.35;;;2.30;99.90;;;;;;5053414;28;20429;-71
2022/04/01 04:24:32;;;;;;;6.85;2.08;;;2.30;99.90;;;;;;5052984;28;20073;-71
2022/04/01 04:27:13;;;;;;;5.57;2.30;;;2.30;99.90;;;;;;5053311;28;20075;-71
2022/04/01 04:29:50;;;;;;;5.32;2.05;;;2.30;99.90;;;;;;5052997;28;20104;-69
2022/04/01 04:32:36;;;;;;;5.25;2.13;;;2.40;99.90;;;;;;5052830;28;20390;-70
2022/04/01 04:35:07;;;;;;;5.57;2.13;;;2.30;99.90;;;;;;5052390;28;20033;-69
2022/04/01 04:37:35;;;;;;;5.82;2.40;;;2.30;99.90;;;;;;5053163;28;20105;-69
2022/04/01 04:40:02;;;;;;;4.82;1.75;;;2.40;99.90;;;;;;5052844;28;20017;-70
2022/04/01 04:42:29;;;;;;;3.13;1.90;;;2.50;99.90;;;;;;5052738;28;20177;-69
2022/04/01 04:44:56;;;;;;;6.38;2.17;;;2.50;99.90;;;;;;5053080;28;20062;-71
2022/04/01 04:47:27;;;;;;;5.65;1.70;;;2.50;99.90;;;;;;5052827;28;20021;-70
2022/04/01 04:49:56;;;;;;;4.57;1.55;;;2.60;99.90;;;;;;5053047;28;20027;-69
2022/04/01 04:52:27;;;;;;;7.57;1.92;;;2.70;99.90;;;;;;5052644;28;20029;-70
2022/04/01 04:54:54;;;;;;;3.75;1.55;;;2.80;99.90;;;;;;5052754;28;20025;-69
2022/04/01 04:57:21;;;;;;;13.65;2.35;;;2.90;99.90;;;;;;5052676;28;20391;-69
2022/04/01 04:59:48;;;;;;;3.40;1.63;;;2.90;99.90;;;;;;5052653;28;20063;-70
2022/04/01 05:02:39;;;;;;;10.13;2.78;;;2.90;99.90;;;;;;5052604;28;20032;-71
2022/04/01 05:05:11;;;;;;;;;;;3.00;99.90;;;;;;5053344;28;20022;-70
2022/04/01 05:08:05;;;;;;;4.18;1.67;;;3.00;99.90;;;;;;5052835;28;19908;-71
2022/04/01 05:10:52;;;;;;;5.68;2.03;;;2.80;99.90;;;;;;5052511;28;20040;-71
2022/04/01 05:13:30;;;;;;;5.38;2.20;;;2.90;99.90;;;;;;5052733;28;20446;-70
2022/04/01 05:16:05;;;;;;;7.05;1.85;;;2.80;99.90;;;;;;5052755;28;20025;-71
2022/04/01 05:19:05;;;;;;;8.18;2.17;;;2.80;99.90;;;;;;5053097;28;20045;-69
2022/04/01 05:21:43;;;;;;;6.45;2.40;;;2.80;99.90;;;;;;5056299;28;20029;-70
2022/04/01 05:24:14;;;;;;;4.53;1.77;;;2.70;99.90;;;;;;5038205;28;20049;-69
2022/04/01 05:26:52;;;;;;;5.10;2.28;;;2.70;99.90;;;;;;5056345;28;20110;-70
2022/04/01 05:29:31;;;;;;;7.15;2.50;;;2.70;99.90;;;;;;5056597;28;20087;-70
2022/04/01 05:32:04;;;;;;;5.10;1.88;;;2.70;99.90;;;;;;5055908;28;20032;-71
2022/04/01 05:34:38;;;;;;;4.15;1.83;;;2.80;99.90;;;;;;5055871;28;20028;-69
2022/04/01 05:37:05;;;;;;;8.48;2.80;;;2.80;99.90;;;;;;5056151;28;20490;-70
2022/04/01 05:39:34;;;;;;;5.53;1.90;;;2.90;99.90;;;;;;5055771;28;20059;-71
2022/04/01 05:42:00;;;;;;;4.88;2.17;;;3.00;99.90;;;;;;5055989;28;20021;-70
2022/04/01 05:44:26;;;;;;;4.72;1.80;;;3.30;99.90;;;;;;5055655;28;20497;-70
2022/04/01 05:46:54;;;;;;;6.78;2.65;;;3.40;99.90;;;;;;5055805;28;20020;-71
2022/04/01 05:49:21;;;;;;;6.85;2.10;;;3.50;99.90;;;;;;5037688;28;20399;-71
2022/04/01 05:51:48;;;;;;;4.50;1.70;;;3.70;99.90;;;;;;5055465;28;20474;-69
2022/04/01 05:54:19;;;;;;;7.88;2.00;;;3.70;99.90;;;;;;5055521;28;20025;-69
2022/04/01 05:56:48;;;;;;;;;;;3.80;99.90;;;;;;5055918;28;20526;-70
2022/04/01 05:59:18;;;;;;;9.27;2.25;;;3.80;99.90;;;;;;5055437;28;20310;-71
2022/04/01 06:01:51;;;;;;;;;;;3.70;99.90;;;;;;5055557;28;20035;-69
2022/04/01 06:04:35;;;;;;;3.53;1.88;;;3.70;99.90;;;;;;5055724;28;19943;-70
2022/04/01 06:07:10;;;;;;;10.45;2.20;;;3.80;99.90;;;;;;5037335;28;20113;-76
2022/04/01 06:09:43;;;;;;;4.15;1.60;;;3.80;99.90;;;;;;5055488;28;20044;-79
2022/04/01 06:12:17;;;;;;;6.97;1.80;;;3.90;99.90;;;;;;5036876;28;20398;-69
2022/04/01 06:15:10;;;;;;;6.95;1.58;;;4.00;99.90;;;;;;5054983;28;20025;-70
2022/04/01 06:17:48;;;;;;;4.15;1.90;;;4.10;99.90;;;;;;5055070;28;20025;-71
2022/04/01 06:20:16;;;;;;;4.90;2.35;;;4.10;99.90;;;;;;5054978;28;20367;-69
2022/04/01 06:23:08;;;;;;;3.70;1.50;;;4.10;99.90;;;;;;5054574;28;20041;-68
2022/04/01 06:25:40;;;;;;;7.05;1.60;;;4.10;99.90;;;;;;5054978;28;20087;-71
2022/04/01 06:28:26;;;;;;;6.72;2.03;;;4.00;99.90;;;;;;5054830;28;20032;-70
2022/04/01 06:30:58;;;;;;;5.57;1.73;;;4.20;99.90;;;;;;5054896;28;20021;-72
2022/04/01 06:33:50;;;;;;;3.50;1.55;;;4.30;99.90;;;;;;5054612;28;20025;-71
2022/04/01 06:36:28;;;;;;;4.22;1.65;;;4.40;99.90;;;;;;5055252;28;20390;-72
2022/04/01 06:39:06;;;;;;;3.78;1.60;;;4.50;99.90;;;;;;5054536;28;20478;-70
2022/04/01 06:41:55;;;;;;;8.90;2.00;;;4.80;99.90;;;;;;5054570;28;20029;-75
2022/04/01 06:44:21;;;;;;;3.90;1.45;;;5.00;99.90;;;;;;5054760;28;20078;-70
2022/04/01 06:46:48;;;;;;;3.47;1.33;;;5.10;99.90;;;;;;5054534;28;20028;-71
2022/04/01 06:49:14;;;;;;;7.07;2.03;;;5.40;99.90;;;;;;5054335;28;20162;-70
2022/04/01 06:51:42;;;;;;;3.17;1.67;;;5.60;99.90;;;;;;5054455;28;20490;-70
2022/04/01 06:54:08;;;;;;;4.80;1.80;;;5.50;99.90;;;;;;5054075;28;20438;-69
2022/04/01 06:56:34;;;;;;;5.03;1.83;;;5.60;99.90;;;;;;5054203;28;20398;-71
2022/04/01 06:59:00;;;;;;;6.22;1.52;;;6.20;99.90;;;;;;5054077;28;20029;-70
2022/04/01 07:01:26;;;;;;;6.15;1.55;;;6.30;99.90;;;;;;5054230;28;20035;-69
2022/04/01 07:03:52;;;;;;;11.32;5.18;;;6.20;99.90;;;;;;5036139;28;20032;-69
2022/04/01 07:06:22;;;;;;;4.95;1.75;;;5.80;99.90;;;;;;5053696;28;20482;-69
2022/04/01 07:08:48;;;;;;;5.37;2.07;;;5.60;99.90;;;;;;5053529;28;20021;-70
2022/04/01 07:11:14;;;;;;;12.90;2.67;;;5.70;99.90;;;;;;5053644;28;20426;-70
2022/04/01 07:13:40;;;;;;;6.97;2.28;;;8.20;99.90;;;;;;5053876;28;20033;-69
2022/04/01 07:16:06;;;;;;;3.65;1.90;;;8.30;99.90;;;;;;5053840;28;20037;-70
2022/04/01 07:18:33;;;;;;;6.53;1.95;;;7.90;99.90;;;;;;5053833;28;20024;-70
2022/04/01 07:20:59;;;;;;;7.60;1.83;;;7.90;99.90;;;;;;5053683;28;20501;-70
2022/04/01 07:23:26;;;;;;;6.13;1.73;;;7.70;99.90;;;;;;5055298;28;20044;-70
2022/04/01 07:25:52;;;;;;;3.30;1.50;;;7.30;99.90;;;;;;5053631;28;20025;-68
2022/04/01 07:28:18;;;;;;;6.05;1.83;;;7.20;99.90;;;;;;5053661;28;20028;-68
2022/04/01 07:30:43;;;;;;;3.47;1.65;;;7.20;99.90;;;;;;5053592;28;20112;-69
2022/04/01 07:33:10;;;;;;;2.90;1.45;;;7.30;99.90;;;;;;5053770;28;20432;-69
2022/04/01 07:35:36;;;;;;;5.55;1.35;;;7.40;99.90;;;;;;5053452;28;20483;-72
2022/04/01 07:38:03;;;;;;;7.15;1.65;;;7.60;99.90;;;;;;5053309;28;20029;-70
2022/04/01 07:40:29;;;;;;;3.95;1.67;;;7.80;99.90;;;;;;5053533;28;20021;-68
2022/04/01 07:42:55;;;;;;;6.10;1.60;;;8.90;99.90;;;;;;5053125;28;20020;-71
2022/04/01 07:45:21;;;;;;;7.80;1.70;;;13.80;97.60;;;;;;5035450;28;20478;-72
2022/04/01 07:47:49;;;;;;;2.33;1.17;;;17.30;85.50;;;;;;5053207;28;20036;-70
2022/04/01 07:50:17;;;;;;;5.38;1.40;;;18.40;73.60;;;;;;5053286;28;20475;-68
2022/04/01 07:52:43;;;;;;;3.65;1.13;;;18.80;66.70;;;;;;5052926;28;20130;-69
2022/04/01 07:55:11;;;;;;;9.68;1.42;;;19.00;65.70;;;;;;5053070;28;20025;-69
2022/04/01 07:57:37;;;;;;;5.05;1.60;;;18.80;61.20;;;;;;5052849;28;20021;-69
2022/04/01 08:00:05;;;;;;;3.55;1.30;;;18.80;60.10;;;;;;5053059;28;20021;-69
2022/04/01 08:02:31;;;;;;;8.38;2.78;;;18.90;60.10;;;;;;5053142;28;20017;-70
2022/04/01 08:04:56;;;;;;;3.70;1.20;;;20.10;58.50;;;;;;5053158;28;20039;-69
2022/04/01 08:07:22;;;;;;;3.95;1.27;;;20.70;56.80;;;;;;5053294;28;20027;-71
2022/04/01 08:09:49;;;;;;;4.85;1.20;;;20.40;55.60;;;;;;5053154;28;20051;-69
2022/04/01 08:12:15;;;;;;;4.65;1.30;;;21.90;54.90;;;;;;5052908;28;20075;-71
2022/04/01 08:14:45;;;;;;;4.55;1.38;;;22.80;53.50;;;;;;5052907;28;20079;-70
2022/04/01 08:17:12;;;;;;;6.07;1.42;;;22.60;52.60;;;;;;5052978;28;20017;-70
2022/04/01 08:19:42;;;;;;;4.95;1.50;;;20.80;51.30;;;;;;5052854;28;20029;-71
2022/04/01 08:22:08;;;;;;;;;;;21.70;53.50;;;;;;5034910;28;20023;-71
2022/04/01 08:24:34;;;;;;;3.85;1.08;;;23.90;50.30;;;;;;5051605;28;20149;-70
2022/04/01 08:27:00;;;;;;;5.57;1.15;;;24.10;49.20;;;;;;5053040;28;20033;-70
2022/04/01 08:29:27;;;;;;;4.05;1.50;;;23.70;48.00;;;;;;5052732;28;20135;-70
2022/04/01 08:31:53;;;;;;;9.50;2.10;;;22.60;47.90;;;;;;5053236;28;20489;-67
2022/04/01 08:34:19;;;;;;;3.22;1.38;;;23.90;49.20;;;;;;5052783;28;20116;-69
2022/04/01 08:36:45;;;;;;;7.97;1.50;;;25.00;46.50;;;;;;5052681;28;20092;-67
2022/04/01 08:39:11;;;;;;;7.05;1.65;;;26.30;45.60;;;;;;5052813;28;20432;-71
2022/04/01 08:41:37;;;;;;;4.25;1.45;;;26.40;44.40;;;;;;5053355;28;20075;-71
2022/04/01 08:44:04;;;;;;;7.85;2.00;;;25.60;44.20;;;;;;5052867;28;20029;-71
2022/04/01 08:46:30;;;;;;;4.35;1.40;;;27.30;43.30;;;;;;5052835;28;20021;-70
2022/04/01 08:48:56;;;;;;;3.35;1.25;;;24.50;44.70;;;;;;5052705;28;20451;-70
2022/04/01 08:51:22;;;;;;;6.55;1.55;;;26.00;44.20;;;;;;5052708;28;20474;-71
2022/04/01 08:53:48;;;;;;;3.17;1.23;;;22.80;43.10;;;;;;5052640;28;20025;-70
2022/04/01 08:56:17;;;;;;;3.10;1.33;;;21.30;44.70;;;;;;5055886;28;20075;-70
2022/04/01 08:58:43;;;;;;;7.22;1.83;;;19.20;46.30;;;;;;5056414;28;20467;-70
2022/04/01 09:01:09;;;;;;;5.43;1.55;;;16.20;51.80;;;;;;5056476;28;20032;-70
2022/04/01 09:03:36;;;;;;;4.38;1.63;;;13.40;55.30;;;;;;5056414;28;20104;-70
2022/04/01 09:06:04;;;;;;;8.93;1.60;;;11.90;59.20;;;;;;5038358;28;20108;-70
2022/04/01 09:08:37;;;;;;;5.25;1.75;;;12.00;62.40;;;;;;5056174;28;20375;-71
2022/04/01 09:11:08;;;;;;;4.20;1.40;;;15.80;54.50;;;;;;5056528;28;20033;-70
2022/04/01 09:13:43;;;;;;;7.85;1.92;;;18.80;51.50;;;;;;5038140;28;20461;-71
2022/04/01 09:16:21;;;;;;;5.18;1.42;;;20.60;47.50;;;;;;5038225;28;20044;-70
2022/04/01 09:18:47;;;;;;;5.53;1.88;;;18.20;50.40;;;;;;5056102;28;20025;-70
2022/04/01 09:21:14;;;;;;;3.60;1.75;;;14.80;56.50;;;;;;5056144;28;20142;-70
2022/04/01 09:23:46;;;;;;;7.50;1.75;;;12.70;62.20;;;;;;5055947;28;20053;-70
2022/04/01 09:26:12;;;;;;;6.55;1.88;;;11.20;65.80;;;;;;5055985;28;20025;-70
2022/04/01 09:28:40;;;;;;;6.60;1.83;;;10.50;67.80;;;;;;5056479;28;20025;-70
2022/04/01 09:31:15;;;;;;;4.30;1.60;;;13.10;65.40;;;;;;5056093;28;20029;-70
2022/04/01 09:33:43;;;;;;;4.97;1.83;;;16.70;56.20;;;;;;5056058;28;20475;-71
2022/04/01 09:36:12;;;;;;;8.23;1.80;;;14.80;57.40;;;;;;5055762;28;20021;-70
2022/04/01 09:38:38;;;;;;;;;;;15.70;59.90;;;;;;5056184;28;20032;-70
2022/04/01 09:41:04;;;;;;;;;;;13.30;60.50;;;;;;5056086;28;19904;-70
2022/04/01 09:43:37;;;;;;;7.38;1.50;;;11.90;64.00;;;;;;5055677;28;19950;-70
2022/04/01 09:46:05;;;;;;;5.70;1.40;;;11.20;67.20;;;;;;5056077;28;20367;-71
2022/04/01 09:48:40;;;;;;;3.95;1.52;;;12.90;67.50;;;;;;5055329;28;20017;-69
2022/04/01 09:51:09;;;;;;;8.05;1.80;;;12.60;61.00;;;;;;5055239;28;20028;-71
2022/04/01 09:53:35;;;;;;;3.53;1.20;;;12.00;64.10;;;;;;5055271;28;20025;-71
2022/04/01 09:56:01;;;;;;;5.63;1.42;;;12.40;62.80;;;;;;5055450;28;20389;-71
2022/04/01 09:58:27;;;;;;;6.43;1.55;;;12.40;63.70;;;;;;5055660;28;20043;-71
2022/04/01 10:00:56;;;;;;;4.97;1.33;;;11.40;65.10;;;;;;5055326;28;20364;-71
2022/04/01 10:03:22;;;;;;;6.00;1.55;;;11.00;64.50;;;;;;5055309;28;20048;-71
2022/04/01 10:05:49;;;;;;;6.05;1.20;;;10.40;65.30;;;;;;5054937;28;20503;-71
2022/04/01 10:08:15;;;;;;;6.72;1.90;;;10.20;66.80;;;;;;5055742;28;20021;-67
2022/04/01 10:10:42;;;;;;;3.20;1.15;;;11.80;61.90;;;;;;5037338;28;20085;-68
2022/04/01 10:13:24;;;;;;;5.18;1.13;;;17.50;56.60;;;;;;5055352;28;20042;-69
2022/04/01 10:15:50;;;;;;;5.18;1.50;;;16.10;53.50;;;;;;5055143;28;20096;-68
2022/04/01 10:18:19;;;;;;;4.63;1.27;;;18.30;50.10;;;;;;5055052;28;20023;-67
2022/04/01 10:20:45;;;;;;;5.70;1.60;;;19.10;50.60;;;;;;5054972;28;20029;-69
2022/04/01 10:23:12;;;;;;;4.82;1.50;;;14.90;51.00;;;;;;5054817;28;20049;-68
2022/04/01 10:25:53;;;;;;;3.53;1.20;;;14.00;50.60;;;;;;5054975;28;20104;-72
2022/04/01 10:28:21;;;;;;;4.43;1.55;;;13.90;49.80;;;;;;5054919;28;20053;-70
2022/04/01 10:31:11;;;;;;;4.10;2.20;;;18.50;48.80;;;;;;5054826;28;20033;-69
2022/04/01 10:33:38;;;;;;;6.22;1.58;;;22.10;46.40;;;;;;5055309;28;20025;-69
2022/04/01 10:36:24;;;;;;;5.65;1.73;;;22.10;45.00;;;;;;5054766;28;20024;-72
2022/04/01 10:39:00;;;;;;;4.78;1.58;;;22.10;46.90;;;;;;5055240;28;20467;-68
2022/04/01 10:41:26;;;;;;;4.38;1.40;;;24.90;45.00;;;;;;5054701;28;20027;-70
2022/04/01 10:43:57;;;;;;;3.83;1.45;;;24.50;43.60;;;;;;5055120;28;20021;-70
2022/04/01 10:46:23;;;;;;;7.75;1.70;;;23.90;41.30;;;;;;5054856;28;20044;-69
2022/04/01 10:52:13;;;;;;;3.20;1.50;;;24.40;41.60;;;;;;5054754;28;20126;-68
2022/04/01 10:54:43;;;;;;;5.65;1.63;;;24.40;41.90;;;;;;5054687;28;20029;-69
2022/04/01 10:57:11;;;;;;;5.25;1.25;;;25.30;40.80;;;;;;5054375;28;20025;-68
2022/04/01 10:59:42;;;;;;;5.68;1.70;;;24.70;41.20;;;;;;5054327;28;20040;-71
2022/04/01 11:02:10;;;;;;;14.52;2.05;;;24.80;40.30;;;;;;5054807;28;20104;-68
2022/04/01 11:04:44;;;;;;;6.10;1.73;;;25.60;40.40;;;;;;5054095;28;20094;-69
2022/04/01 11:07:22;;;;;;;8.32;1.77;;;21.00;44.10;;;;;;5054313;28;20478;-69
2022/04/01 11:09:50;;;;;;;5.13;1.40;;;18.90;44.50;;;;;;5054125;28;20107;-69
2022/04/01 11:12:25;;;;;;;6.45;1.65;;;14.80;50.50;;;;;;5054218;28;20104;-68
2022/04/01 11:14:56;;;;;;;5.50;1.73;;;12.30;54.90;;;;;;5054221;28;20464;-68
2022/04/01 11:17:23;;;;;;;5.90;1.52;;;17.10;52.20;;;;;;5053820;28;20025;-69
2022/04/01 11:20:02;;;;;;;6.32;1.67;;;21.80;45.90;;;;;;5036077;28;20112;-68
2022/04/01 11:22:35;;;;;;;6.45;1.52;;;22.60;43.10;;;;;;5053923;28;20107;-71
2022/04/01 11:25:00;;;;;;;5.60;1.60;;;23.30;43.10;;;;;;5035677;28;20029;-70
2022/04/01 11:27:27;;;;;;;5.53;2.00;;;23.90;42.10;;;;;;5053783;28;20108;-71
2022/04/01 11:30:06;;;;;;;5.78;1.95;;;23.60;42.50;;;;;;5053698;28;20028;-68
2022/04/01 11:32:34;;;;;;;3.35;1.30;;;22.10;42.00;;;;;;5053651;28;20032;-69
2022/04/01 11:35:00;;;;;;;8.05;2.17;;;19.70;46.40;;;;;;5053868;28;20025;-67
2022/04/01 11:37:26;;;;;;;4.15;1.20;;;16.40;48.40;;;;;;5053902;28;20075;-67
2022/04/01 11:39:52;;;;;;;5.25;1.60;;;14.00;53.40;;;;;;5053586;28;20108;-67
2022/04/01 11:42:18;;;;;;;2.70;1.27;;;11.90;54.50;;;;;;5053477;28;20055;-67
2022/04/01 11:44:56;;;;;;;3.72;1.13;;;11.40;58.10;;;;;;5053490;28;20134;-67
2022/04/01 11:47:37;;;;;;;3.90;2.00;;;11.50;56.30;;;;;;5053456;28;20017;-70
2022/04/01 11:50:06;;;;;;;;;;;11.20;57.90;;;;;;5054427;28;20021;-68
2022/04/01 11:52:52;;;;;;;4.63;1.80;;;11.30;59.80;;;;;;5035480;28;19908;-68
2022/04/01 11:55:28;;;;;;;6.22;1.75;;;12.40;57.80;;;;;;5053330;28;20108;-69
2022/04/01 11:57:57;;;;;;;6.55;1.63;;;11.80;55.80;;;;;;5053566;28;20025;-69
2022/04/01 12:00:28;;;;;;;5.30;1.42;;;11.30;57.00;;;;;;5053190;28;20021;-70
2022/04/01 12:02:54;;;;;;;2.95;1.50;;;11.30;57.50;;;;;;5053503;28;20099;-69
2022/04/01 12:05:21;;;;;;;5.03;1.92;;;11.50;58.90;;;;;;5053505;28;20032;-71
2022/04/01 12:10:53;;;;;;;4.45;1.55;;;12.50;58.00;;;;;;5053176;28;20035;-69
2022/04/01 12:13:19;;;;;;;5.15;1.38;;;11.80;59.60;;;;;;5053041;28;20029;-70
2022/04/01 12:15:47;;;;;;;6.53;1.35;;;11.60;61.10;;;;;;5035060;28;20120;-70
2022/04/01 12:18:15;;;;;;;8.02;1.40;;;12.50;59.40;;;;;;5053077;28;20029;-70
2022/04/01 12:20:43;;;;;;;6.85;2.00;;;11.90;57.60;;;;;;5052998;28;20033;-69
2022/04/01 12:23:09;;;;;;;3.88;1.50;;;11.00;58.90;;;;;;5052873;28;20049;-68
2022/04/01 12:25:37;;;;;;;6.13;1.63;;;10.90;59.90;;;;;;5052985;28;20048;-67
2022/04/01 12:28:11;;;;;;;5.68;1.40;;;10.90;60.10;;;;;;5053273;28;20040;-68
2022/04/01 12:30:39;;;;;;;5.68;1.65;;;10.90;59.80;;;;;;5057317;28;20111;-68
2022/04/01 12:33:17;;;;;;;7.70;1.30;;;11.40;58.20;;;;;;5057221;28;20021;-68
2022/04/01 12:36:06;;;;;;;3.90;1.65;;;11.00;58.30;;;;;;5057586;28;20040;-69
2022/04/01 12:38:36;;;;;;;5.95;1.60;;;10.60;56.70;;;;;;5057245;28;20064;-68
2022/04/01 12:41:06;;;;;;;6.15;1.67;;;10.50;57.30;;;;;;5057538;28;20021;-68
2022/04/01 12:43:43;;;;;;;5.70;1.55;;;10.80;57.50;;;;;;5057123;28;20056;-69
2022/04/01 12:46:20;;;;;;;3.00;1.35;;;11.20;58.10;;;;;;5057128;28;20451;-69
2022/04/01 12:48:53;;;;;;;4.15;1.52;;;11.00;59.50;;;;;;5057045;28;20028;-68
2022/04/01 12:51:33;;;;;;;6.95;1.52;;;10.60;59.10;;;;;;5056925;28;20028;-68
2022/04/01 12:54:09;;;;;;;4.63;1.77;;;9.90;55.40;;;;;;5056774;28;20025;-68
2022/04/01 12:56:36;;;;;;;4.10;1.58;;;10.20;58.40;;;;;;5038500;28;20494;-69
2022/04/01 12:59:06;;;;;;;4.05;1.70;;;10.20;58.30;;;;;;5056569;28;20021;-69
2022/04/01 13:01:32;;;;;;;5.30;2.20;;;10.10;59.20;;;;;;5057109;28;20025;-68
2022/04/01 13:03:59;;;;;;;6.15;1.60;;;10.50;62.50;;;;;;5056479;28;20075;-69
2022/04/01 13:06:26;;;;;;;8.00;2.00;;;11.30;61.60;;;;;;5056975;28;20577;-69
2022/04/01 13:08:59;;;;;;;6.38;1.60;;;11.70;59.20;;;;;;5056378;28;20506;-68
2022/04/01 13:11:33;;;;;;;5.22;1.80;;;11.70;56.70;;;;;;5056624;28;20146;-68
2022/04/01 13:13:59;;;;;;;10.13;1.92;;;12.00;58.90;;;;;;5056724;28;20021;-70
2022/04/01 13:16:24;;;;;;;7.85;2.03;;;11.40;59.50;;;;;;5056285;28;20495;-71
2022/04/01 13:18:50;;;;;;;5.70;1.50;;;11.00;60.10;;;;;;5056250;28;20021;-70